CheckWX is a tool to help pilots better visualize weather data.  It is not intended as a substitute for an official pre-flight weather briefing.

00:40:19 UTC

HEAT METAR
Assiut International Airport
Assiut, Egypt
Current

2 hours ago

HEAT 262300Z 28009KT CAVOK 14/02 Q1019 NOSIG
Observed
Mar-26 @ 23:00 UTC
Wind
  • 280° at 9 KTS
Visibility
10,000+ meters
Flight Rules
VFR
Cloud Levels
  • Clear skies
Temperature
14°C / 57°F
Dewpoint
C / 36°F
Humidity
44%
Altimeter
30.09" Hg
Pressure
1018.92 hPa
Previous

3 hours ago

HEAT 262200Z 27007KT CAVOK 15/02 Q1020 NOSIG
Observed
Mar-26 @ 22:00 UTC
Wind
  • 270° at 7 KTS
Visibility
10,000+ meters
Flight Rules
VFR
Cloud Levels
  • Clear skies
Temperature
15°C / 59°F
Dewpoint
C / 36°F
Humidity
42%
Altimeter
30.12" Hg
Pressure
1019.92 hPa
Previous

4 hours ago

HEAT 262100Z 28008KT CAVOK 16/02 Q1020 NOSIG
Observed
Mar-26 @ 21:00 UTC
Wind
  • 280° at 8 KTS
Visibility
10,000+ meters
Flight Rules
VFR
Cloud Levels
  • Clear skies
Temperature
16°C / 61°F
Dewpoint
C / 36°F
Humidity
39%
Altimeter
30.12" Hg
Pressure
1019.92 hPa